createdAt,value
2023-01-27T00:00:57.519Z,25.2
2023-01-27T00:05:49.764Z,25.1
2023-01-27T00:10:41.319Z,25.1
2023-01-27T00:15:32.904Z,25.1
2023-01-27T00:20:24.804Z,25.1
2023-01-27T00:25:16.448Z,25.1
2023-01-27T00:30:23.927Z,25.1
2023-01-27T00:35:31.241Z,25.1
2023-01-27T00:40:23.320Z,25.1
2023-01-27T00:45:14.378Z,25.1
2023-01-27T00:50:20.499Z,25.1
2023-01-27T00:55:11.196Z,25.1
2023-01-27T01:00:18.082Z,25.1
2023-01-27T01:05:24.979Z,25
2023-01-27T01:10:32.247Z,25.1
2023-01-27T01:15:39.573Z,25
2023-01-27T01:20:46.259Z,25
2023-01-27T01:25:53.163Z,25
2023-01-27T01:31:16.581Z,25
2023-01-27T01:36:39.090Z,25
2023-01-27T01:42:04.115Z,25
2023-01-27T01:47:26.944Z,25
2023-01-27T01:52:48.906Z,25
2023-01-27T01:58:12.879Z,24.9
2023-01-27T02:03:36.102Z,24.9
2023-01-27T02:08:58.727Z,25.4
2023-01-27T02:14:20.715Z,26.9
2023-01-27T02:19:44.188Z,28.6
2023-01-27T02:24:51.121Z,29.7
2023-01-27T02:30:13.913Z,30.6
2023-01-27T02:34:54.183Z,31.1
2023-01-27T02:40:17.247Z,31.7
2023-01-27T02:45:40.013Z,32.2
2023-01-27T02:51:03.287Z,32.8
2023-01-27T02:56:25.403Z,33.3
2023-01-27T03:01:47.021Z,33.8
2023-01-27T03:07:10.422Z,34.2
2023-01-27T03:12:32.652Z,34.5
2023-01-27T03:17:40.211Z,34.8
2023-01-27T03:23:03.107Z,35
2023-01-27T03:28:25.852Z,35.3
2023-01-27T03:33:33.654Z,35.6
2023-01-27T03:38:56.576Z,35.8
2023-01-27T03:44:18.743Z,35.9
2023-01-27T03:49:41.847Z,36.1
2023-01-27T03:55:04.546Z,36.2
2023-01-27T04:00:27.046Z,36.3
2023-01-27T04:05:49.746Z,36.3
2023-01-27T04:11:11.432Z,36.3
2023-01-27T04:16:36.076Z,36.3
2023-01-27T04:21:42.337Z,36.4
2023-01-27T04:27:07.809Z,36.3
2023-01-27T04:32:41.289Z,36.3
2023-01-27T04:37:53.370Z,36.3
2023-01-27T04:43:17.186Z,36.3
2023-01-27T04:48:24.857Z,36.3
2023-01-27T04:53:31.424Z,36.3
2023-01-27T04:58:39.040Z,36.3
2023-01-27T05:03:46.420Z,36.3
2023-01-27T05:08:54.931Z,36.2
2023-01-27T05:14:02.373Z,36.2
2023-01-27T05:19:09.387Z,36.1
2023-01-27T05:24:17.763Z,36.1
2023-01-27T05:29:40.439Z,36.1
2023-01-27T05:35:03.593Z,36
2023-01-27T05:40:10.620Z,36
2023-01-27T05:45:34.001Z,35.9
2023-01-27T05:50:56.862Z,35.9
2023-01-27T05:56:21.513Z,35.8
2023-01-27T06:01:14.421Z,35.8
2023-01-27T06:06:23.264Z,35.8
2023-01-27T06:11:30.507Z,35.7
2023-01-27T06:16:38.946Z,35.6
2023-01-27T06:21:45.457Z,35.6
2023-01-27T06:27:08.578Z,35.5
2023-01-27T06:32:44.627Z,35.4
2023-01-27T06:38:07.323Z,35.3
2023-01-27T06:43:30.178Z,35.3
2023-01-27T06:48:53.749Z,35.2
2023-01-27T06:54:16.263Z,35.1
2023-01-27T06:59:41.675Z,35
2023-01-27T07:05:07.149Z,34.9
2023-01-27T07:10:41.680Z,34.9
2023-01-27T07:16:05.950Z,34.8
2023-01-27T07:21:30.947Z,34.7
2023-01-27T07:26:48.648Z,34.6
2023-01-27T07:32:11.888Z,34.4
2023-01-27T07:37:36.640Z,34.3
2023-01-27T07:43:00.868Z,34.2
2023-01-27T07:48:08.768Z,34.1
2023-01-27T07:53:16.012Z,34
2023-01-27T07:58:38.867Z,33.9
2023-01-27T08:04:02.015Z,33.8
2023-01-27T08:09:43.772Z,33.7
2023-01-27T08:15:06.801Z,33.6
2023-01-27T08:20:30.010Z,33.5
2023-01-27T08:25:52.918Z,33.4
2023-01-27T08:31:16.175Z,33.3
2023-01-27T08:36:38.670Z,33.3
2023-01-27T08:42:04.053Z,33.2
2023-01-27T08:47:26.868Z,33.1
2023-01-27T08:52:49.401Z,33
2023-01-27T08:58:12.273Z,32.9
2023-01-27T09:03:36.039Z,32.9
2023-01-27T09:08:58.700Z,32.7
2023-01-27T09:14:31.315Z,32.6
2023-01-27T09:19:53.898Z,32.4
2023-01-27T09:25:16.915Z,32.4
2023-01-27T09:30:48.550Z,32.3
2023-01-27T09:36:11.921Z,32.2
2023-01-27T09:41:34.909Z,32.1
2023-01-27T09:46:59.829Z,32
2023-01-27T09:52:26.236Z,31.9
2023-01-27T09:57:53.994Z,31.9
2023-01-27T10:03:16.849Z,31.8
2023-01-27T10:08:40.116Z,31.8
2023-01-27T10:14:03.346Z,31.7
2023-01-27T10:19:26.520Z,31.6
2023-01-27T10:24:48.922Z,31.6
2023-01-27T10:30:10.956Z,31.5
2023-01-27T10:35:34.520Z,31.4
2023-01-27T10:40:57.300Z,31.4
2023-01-27T10:46:20.361Z,31.3
2023-01-27T10:51:43.604Z,31.3
2023-01-27T10:57:05.657Z,31.3
2023-01-27T11:03:32.067Z,31.2
2023-01-27T11:08:54.744Z,31.1
2023-01-27T11:14:17.672Z,31.1
2023-01-27T11:19:40.154Z,31.1
2023-01-27T11:25:15.415Z,30.9
2023-01-27T11:30:39.953Z,30.9
2023-01-27T11:36:02.496Z,30.8
2023-01-27T11:41:39.769Z,30.8
2023-01-27T11:47:02.343Z,30.8
2023-01-27T11:52:24.808Z,30.6
2023-01-27T11:57:47.626Z,30.5
2023-01-27T12:03:11.743Z,30.4
2023-01-27T12:08:34.751Z,30.3
2023-01-27T12:14:00.940Z,30.2
2023-01-27T12:19:08.183Z,30.1
2023-01-27T12:24:31.539Z,29.5
2023-01-27T12:29:54.068Z,28.6
2023-01-27T12:35:17.787Z,27.9
2023-01-27T12:40:40.946Z,27.5
2023-01-27T12:46:05.635Z,27.2
2023-01-27T12:51:28.319Z,26.9
2023-01-27T12:56:50.616Z,26.9
2023-01-27T13:02:17.129Z,26.8
2023-01-27T13:07:39.529Z,26.5
2023-01-27T13:13:02.515Z,26.3
2023-01-27T13:18:25.969Z,26.2
2023-01-27T13:23:17.613Z,26.1
2023-01-27T13:28:24.764Z,26
2023-01-27T13:34:00.408Z,25.8
2023-01-27T13:39:07.360Z,25.7
2023-01-27T13:44:30.298Z,25.6
2023-01-27T13:49:37.794Z,25.6
2023-01-27T13:54:48.342Z,25.5
2023-01-27T14:00:11.369Z,25.5
2023-01-27T14:05:35.017Z,25.5
2023-01-27T14:10:43.782Z,25.5
2023-01-27T14:16:20.069Z,25.4
2023-01-27T14:21:39.503Z,25.4
2023-01-27T14:26:50.364Z,25.4
2023-01-27T14:32:13.872Z,25.4
2023-01-27T14:37:36.380Z,25.4
2023-01-27T14:42:59.749Z,25.3
2023-01-27T14:48:44.992Z,25.4
2023-01-27T14:54:07.901Z,25.3
2023-01-27T14:59:30.728Z,25.3
2023-01-27T15:04:54.761Z,25.3
2023-01-27T15:10:18.125Z,25.3
2023-01-27T15:15:24.999Z,25.3
2023-01-27T15:20:47.831Z,25.3
2023-01-27T15:26:10.397Z,25.3
2023-01-27T15:31:33.751Z,25.3
2023-01-27T15:36:57.866Z,25.2
2023-01-27T15:42:18.592Z,25.1
2023-01-27T15:47:42.739Z,24.9
2023-01-27T15:53:06.871Z,24.6
2023-01-27T15:58:30.227Z,24.2
2023-01-27T16:03:56.914Z,23.7
2023-01-27T16:09:21.171Z,23.3
2023-01-27T16:14:44.390Z,22.9
2023-01-27T16:19:51.606Z,22.7
2023-01-27T16:25:15.023Z,22.4
2023-01-27T16:30:37.851Z,22.1
2023-01-27T16:36:01.028Z,21.8
2023-01-27T16:41:23.947Z,21.5
2023-01-27T16:46:46.795Z,21.3
2023-01-27T16:52:29.390Z,20.9
2023-01-27T16:57:59.294Z,20.7
2023-01-27T17:03:35.547Z,20.5
2023-01-27T17:09:09.544Z,20.4
2023-01-27T17:15:03.060Z,20.3
2023-01-27T17:20:36.542Z,20.1
2023-01-27T17:25:59.810Z,20
2023-01-27T17:31:26.342Z,19.8
2023-01-27T17:37:01.763Z,19.6
2023-01-27T17:42:31.344Z,19.3
2023-01-27T17:47:59.383Z,19.1
2023-01-27T17:53:29.444Z,18.8
2023-01-27T18:03:57.792Z,18.5
2023-01-27T18:09:22.973Z,18.4
2023-01-27T18:14:51.531Z,18.4
2023-01-27T18:20:19.926Z,18.3
2023-01-27T18:25:51.526Z,18.2
2023-01-27T18:31:03.758Z,18.2
2023-01-27T18:36:34.578Z,18.1
2023-01-27T18:41:52.000Z,18.1
2023-01-27T18:47:31.796Z,18.1
2023-01-27T18:53:13.006Z,18.1
2023-01-27T18:58:54.039Z,18
2023-01-27T19:04:32.224Z,18
2023-01-27T19:10:05.996Z,18
2023-01-27T19:15:34.668Z,18
2023-01-27T19:21:01.873Z,17.9
2023-01-27T19:26:19.528Z,17.9
2023-01-27T19:31:18.208Z,17.9
2023-01-27T19:36:47.073Z,17.9
2023-01-27T19:42:18.274Z,17.9
2023-01-27T19:47:46.300Z,17.9
2023-01-27T19:53:14.107Z,17.9
2023-01-27T19:58:40.623Z,17.8
2023-01-27T20:04:10.168Z,17.8
2023-01-27T20:09:39.473Z,17.8
2023-01-27T20:15:07.951Z,17.8
2023-01-27T20:20:36.962Z,17.9
2023-01-27T20:26:02.383Z,17.9
2023-01-27T20:31:29.038Z,18
2023-01-27T20:36:39.348Z,18.3
2023-01-27T20:41:48.055Z,18.6
2023-01-27T20:47:24.506Z,19.3
2023-01-27T20:52:47.534Z,20
2023-01-27T20:58:10.401Z,20.8
2023-01-27T21:03:33.154Z,21.6
2023-01-27T21:08:56.736Z,22.4
2023-01-27T21:14:19.527Z,23.1
2023-01-27T21:19:43.264Z,23.8
2023-01-27T21:24:50.749Z,24.2
2023-01-27T21:30:00.821Z,24.4
2023-01-27T21:35:08.779Z,24.6
2023-01-27T21:40:31.511Z,24.7
2023-01-27T21:45:54.184Z,24.8
2023-01-27T21:51:17.186Z,24.9
2023-01-27T21:56:40.435Z,24.9
2023-01-27T22:02:04.811Z,24.9
2023-01-27T22:07:28.431Z,25
2023-01-27T22:12:51.747Z,25
2023-01-27T22:17:59.100Z,25
2023-01-27T22:23:05.049Z,25
2023-01-27T22:28:27.032Z,25
2023-01-27T22:33:49.359Z,25
2023-01-27T22:39:13.104Z,25.1
2023-01-27T22:44:35.883Z,25.1
2023-01-27T22:49:58.478Z,25
2023-01-27T22:55:20.736Z,25
2023-01-27T23:00:42.857Z,25
2023-01-27T23:06:06.465Z,25
2023-01-27T23:11:28.726Z,25
2023-01-27T23:16:52.341Z,25
2023-01-27T23:22:14.595Z,24.9
2023-01-27T23:27:37.316Z,24.9
2023-01-27T23:33:06.913Z,24.9
2023-01-27T23:38:47.719Z,24.9
2023-01-27T23:44:10.225Z,24.9
2023-01-27T23:49:32.744Z,24.9
2023-01-27T23:54:55.331Z,24.9
